sensor_id;sensor_type;location;lat;lon;timestamp;temperature;humidity
41722;DHT22;27407;24.142;-110.310;2023-12-07T00:01:12;26.40;99.90
41722;DHT22;27407;24.142;-110.310;2023-12-07T00:03:39;26.50;99.90
41722;DHT22;27407;24.142;-110.310;2023-12-07T00:06:06;26.30;99.90
41722;DHT22;27407;24.142;-110.310;2023-12-07T00:08:32;26.20;99.90
41722;DHT22;27407;24.142;-110.310;2023-12-07T00:10:59;26.00;99.90
41722;DHT22;27407;24.142;-110.310;2023-12-07T00:13:26;25.90;99.90
41722;DHT22;27407;24.142;-110.310;2023-12-07T00:15:53;25.90;99.90
41722;DHT22;27407;24.142;-110.310;2023-12-07T00:18:19;25.70;99.90
41722;DHT22;27407;24.142;-110.310;2023-12-07T00:20:46;25.50;99.90
41722;DHT22;27407;24.142;-110.310;2023-12-07T00:23:12;25.40;99.90
41722;DHT22;27407;24.142;-110.310;2023-12-07T00:25:39;25.30;99.90
41722;DHT22;27407;24.142;-110.310;2023-12-07T00:28:06;25.10;99.90
41722;DHT22;27407;24.142;-110.310;2023-12-07T00:30:32;25.10;99.90
41722;DHT22;27407;24.142;-110.310;2023-12-07T00:33:00;24.90;99.90
41722;DHT22;27407;24.142;-110.310;2023-12-07T00:35:26;24.80;99.90
41722;DHT22;27407;24.142;-110.310;2023-12-07T00:37:57;24.70;99.90
41722;DHT22;27407;24.142;-110.310;2023-12-07T00:40:24;24.60;99.90
41722;DHT22;27407;24.142;-110.310;2023-12-07T00:42:51;24.40;99.90
41722;DHT22;27407;24.142;-110.310;2023-12-07T00:45:17;24.40;99.90
41722;DHT22;27407;24.142;-110.310;2023-12-07T00:47:44;24.20;99.90
41722;DHT22;27407;24.142;-110.310;2023-12-07T00:50:13;24.20;99.90
41722;DHT22;27407;24.142;-110.310;2023-12-07T00:52:40;24.00;99.90
41722;DHT22;27407;24.142;-110.310;2023-12-07T00:55:07;23.90;99.90
41722;DHT22;27407;24.142;-110.310;2023-12-07T00:57:34;23.90;99.90
41722;DHT22;27407;24.142;-110.310;2023-12-07T01:00:00;23.80;99.90
41722;DHT22;27407;24.142;-110.310;2023-12-07T01:02:27;23.70;99.90
41722;DHT22;27407;24.142;-110.310;2023-12-07T01:04:54;23.60;99.90
41722;DHT22;27407;24.142;-110.310;2023-12-07T01:07:21;23.60;99.90
41722;DHT22;27407;24.142;-110.310;2023-12-07T01:09:47;23.50;99.90
41722;DHT22;27407;24.142;-110.310;2023-12-07T01:12:14;23.50;99.90
41722;DHT22;27407;24.142;-110.310;2023-12-07T01:14:40;23.40;99.90
41722;DHT22;27407;24.142;-110.310;2023-12-07T01:17:07;23.40;99.90
41722;DHT22;27407;24.142;-110.310;2023-12-07T01:19:34;23.40;99.90
41722;DHT22;27407;24.142;-110.310;2023-12-07T01:22:00;23.40;99.90
41722;DHT22;27407;24.142;-110.310;2023-12-07T01:24:27;23.30;99.90
41722;DHT22;27407;24.142;-110.310;2023-12-07T01:26:55;23.30;99.90
41722;DHT22;27407;24.142;-110.310;2023-12-07T01:29:22;23.20;99.90
41722;DHT22;27407;24.142;-110.310;2023-12-07T01:31:48;23.20;99.90
41722;DHT22;27407;24.142;-110.310;2023-12-07T01:34:17;23.10;99.90
41722;DHT22;27407;24.142;-110.310;2023-12-07T01:36:44;23.10;99.90
41722;DHT22;27407;24.142;-110.310;2023-12-07T01:39:11;23.00;99.90
41722;DHT22;27407;24.142;-110.310;2023-12-07T01:41:39;22.90;99.90
41722;DHT22;27407;24.142;-110.310;2023-12-07T01:44:06;22.80;99.90
41722;DHT22;27407;24.142;-110.310;2023-12-07T01:46:33;22.80;99.90
41722;DHT22;27407;24.142;-110.310;2023-12-07T01:49:01;22.70;99.90
41722;DHT22;27407;24.142;-110.310;2023-12-07T01:51:28;22.60;99.90
41722;DHT22;27407;24.142;-110.310;2023-12-07T01:53:54;22.60;99.90
41722;DHT22;27407;24.142;-110.310;2023-12-07T01:56:23;22.50;99.90
41722;DHT22;27407;24.142;-110.310;2023-12-07T01:58:50;22.40;99.90
41722;DHT22;27407;24.142;-110.310;2023-12-07T02:01:17;22.40;99.90
41722;DHT22;27407;24.142;-110.310;2023-12-07T02:03:44;22.30;99.90
41722;DHT22;27407;24.142;-110.310;2023-12-07T02:06:11;22.30;99.90
41722;DHT22;27407;24.142;-110.310;2023-12-07T02:08:39;22.20;99.90
41722;DHT22;27407;24.142;-110.310;2023-12-07T02:11:10;22.20;99.90
41722;DHT22;27407;24.142;-110.310;2023-12-07T02:13:37;22.20;99.90
41722;DHT22;27407;24.142;-110.310;2023-12-07T02:16:36;22.20;99.90
41722;DHT22;27407;24.142;-110.310;2023-12-07T02:21:43;22.10;99.90
41722;DHT22;27407;24.142;-110.310;2023-12-07T02:24:21;22.00;99.90
41722;DHT22;27407;24.142;-110.310;2023-12-07T02:26:49;22.00;99.90
41722;DHT22;27407;24.142;-110.310;2023-12-07T02:29:16;22.00;99.90
41722;DHT22;27407;24.142;-110.310;2023-12-07T02:31:43;21.90;99.90
41722;DHT22;27407;24.142;-110.310;2023-12-07T02:34:09;21.90;99.90
41722;DHT22;27407;24.142;-110.310;2023-12-07T02:36:38;21.80;99.90
41722;DHT22;27407;24.142;-110.310;2023-12-07T02:39:07;21.80;99.90
41722;DHT22;27407;24.142;-110.310;2023-12-07T02:41:35;21.80;99.90
41722;DHT22;27407;24.142;-110.310;2023-12-07T02:44:03;21.80;99.90
41722;DHT22;27407;24.142;-110.310;2023-12-07T02:46:30;21.70;99.90
41722;DHT22;27407;24.142;-110.310;2023-12-07T02:48:57;21.70;99.90
41722;DHT22;27407;24.142;-110.310;2023-12-07T02:51:24;21.70;99.90
41722;DHT22;27407;24.142;-110.310;2023-12-07T02:53:51;21.70;99.90
41722;DHT22;27407;24.142;-110.310;2023-12-07T02:56:17;21.60;99.90
41722;DHT22;27407;24.142;-110.310;2023-12-07T02:58:44;21.60;99.90
41722;DHT22;27407;24.142;-110.310;2023-12-07T03:01:11;21.50;99.90
41722;DHT22;27407;24.142;-110.310;2023-12-07T03:03:37;21.50;99.90
41722;DHT22;27407;24.142;-110.310;2023-12-07T03:06:04;21.40;99.90
41722;DHT22;27407;24.142;-110.310;2023-12-07T03:08:31;21.40;99.90
41722;DHT22;27407;24.142;-110.310;2023-12-07T03:10:58;21.30;99.90
41722;DHT22;27407;24.142;-110.310;2023-12-07T03:13:24;21.20;99.90
41722;DHT22;27407;24.142;-110.310;2023-12-07T03:15:51;21.20;99.90
41722;DHT22;27407;24.142;-110.310;2023-12-07T03:18:17;21.20;99.90
41722;DHT22;27407;24.142;-110.310;2023-12-07T03:20:44;21.10;99.90
41722;DHT22;27407;24.142;-110.310;2023-12-07T03:23:11;21.10;99.90
41722;DHT22;27407;24.142;-110.310;2023-12-07T03:25:37;21.10;99.90
41722;DHT22;27407;24.142;-110.310;2023-12-07T03:28:04;21.00;99.90
41722;DHT22;27407;24.142;-110.310;2023-12-07T03:30:31;21.00;99.90
41722;DHT22;27407;24.142;-110.310;2023-12-07T03:32:57;20.90;99.90
41722;DHT22;27407;24.142;-110.310;2023-12-07T03:35:24;20.90;99.90
41722;DHT22;27407;24.142;-110.310;2023-12-07T03:37:51;20.90;99.90
41722;DHT22;27407;24.142;-110.310;2023-12-07T03:40:17;20.80;99.90
41722;DHT22;27407;24.142;-110.310;2023-12-07T03:42:44;20.70;99.90
41722;DHT22;27407;24.142;-110.310;2023-12-07T03:45:11;20.70;99.90
41722;DHT22;27407;24.142;-110.310;2023-12-07T03:47:38;20.70;99.90
41722;DHT22;27407;24.142;-110.310;2023-12-07T03:50:05;20.70;99.90
41722;DHT22;27407;24.142;-110.310;2023-12-07T03:52:32;20.70;99.90
41722;DHT22;27407;24.142;-110.310;2023-12-07T03:54:58;20.70;99.90
41722;DHT22;27407;24.142;-110.310;2023-12-07T03:57:25;20.60;99.90
41722;DHT22;27407;24.142;-110.310;2023-12-07T03:59:51;20.60;99.90
41722;DHT22;27407;24.142;-110.310;2023-12-07T04:02:19;20.60;99.90
41722;DHT22;27407;24.142;-110.310;2023-12-07T04:04:46;20.50;99.90
41722;DHT22;27407;24.142;-110.310;2023-12-07T04:07:13;20.50;99.90
41722;DHT22;27407;24.142;-110.310;2023-12-07T04:09:39;20.50;99.90
41722;DHT22;27407;24.142;-110.310;2023-12-07T04:12:06;20.40;99.90
41722;DHT22;27407;24.142;-110.310;2023-12-07T04:14:33;20.40;99.90
41722;DHT22;27407;24.142;-110.310;2023-12-07T04:16:59;20.40;99.90
41722;DHT22;27407;24.142;-110.310;2023-12-07T04:19:26;20.30;99.90
41722;DHT22;27407;24.142;-110.310;2023-12-07T04:21:53;20.30;99.90
41722;DHT22;27407;24.142;-110.310;2023-12-07T04:24:19;20.20;99.90
41722;DHT22;27407;24.142;-110.310;2023-12-07T04:26:46;20.20;99.90
41722;DHT22;27407;24.142;-110.310;2023-12-07T04:29:15;20.10;99.90
41722;DHT22;27407;24.142;-110.310;2023-12-07T04:31:41;20.10;99.90
41722;DHT22;27407;24.142;-110.310;2023-12-07T04:34:08;20.00;99.90
41722;DHT22;27407;24.142;-110.310;2023-12-07T04:36:34;20.00;99.90
41722;DHT22;27407;24.142;-110.310;2023-12-07T04:39:01;20.00;99.90
41722;DHT22;27407;24.142;-110.310;2023-12-07T04:41:27;19.90;99.90
41722;DHT22;27407;24.142;-110.310;2023-12-07T04:43:54;19.80;99.90
41722;DHT22;27407;24.142;-110.310;2023-12-07T04:46:21;19.80;99.90
41722;DHT22;27407;24.142;-110.310;2023-12-07T04:48:48;19.70;99.90
41722;DHT22;27407;24.142;-110.310;2023-12-07T04:51:14;19.60;99.90
41722;DHT22;27407;24.142;-110.310;2023-12-07T04:53:41;19.50;99.90
41722;DHT22;27407;24.142;-110.310;2023-12-07T04:56:09;19.30;99.90
41722;DHT22;27407;24.142;-110.310;2023-12-07T04:58:35;19.10;99.90
41722;DHT22;27407;24.142;-110.310;2023-12-07T05:01:02;19.10;99.90
41722;DHT22;27407;24.142;-110.310;2023-12-07T05:03:30;19.10;99.90
41722;DHT22;27407;24.142;-110.310;2023-12-07T05:05:56;19.00;99.90
41722;DHT22;27407;24.142;-110.310;2023-12-07T05:08:23;18.90;99.90
41722;DHT22;27407;24.142;-110.310;2023-12-07T05:10:49;18.80;99.90
41722;DHT22;27407;24.142;-110.310;2023-12-07T05:13:17;18.70;99.90
41722;DHT22;27407;24.142;-110.310;2023-12-07T05:15:44;18.60;99.90
41722;DHT22;27407;24.142;-110.310;2023-12-07T05:18:12;18.60;99.90
41722;DHT22;27407;24.142;-110.310;2023-12-07T05:20:39;18.50;99.90
41722;DHT22;27407;24.142;-110.310;2023-12-07T05:23:06;18.40;99.90
41722;DHT22;27407;24.142;-110.310;2023-12-07T05:25:33;18.40;99.90
41722;DHT22;27407;24.142;-110.310;2023-12-07T05:27:59;18.30;99.90
41722;DHT22;27407;24.142;-110.310;2023-12-07T05:30:26;18.20;99.90
41722;DHT22;27407;24.142;-110.310;2023-12-07T05:32:54;18.20;99.90
41722;DHT22;27407;24.142;-110.310;2023-12-07T05:35:20;18.20;99.90
41722;DHT22;27407;24.142;-110.310;2023-12-07T05:37:47;18.10;99.90
41722;DHT22;27407;24.142;-110.310;2023-12-07T05:40:13;18.00;99.90
41722;DHT22;27407;24.142;-110.310;2023-12-07T05:42:42;18.00;99.90
41722;DHT22;27407;24.142;-110.310;2023-12-07T05:45:09;18.00;99.90
41722;DHT22;27407;24.142;-110.310;2023-12-07T05:47:36;18.00;99.90
41722;DHT22;27407;24.142;-110.310;2023-12-07T05:50:03;17.90;99.90
41722;DHT22;27407;24.142;-110.310;2023-12-07T05:52:31;17.90;99.90
41722;DHT22;27407;24.142;-110.310;2023-12-07T05:54:57;17.80;99.90
41722;DHT22;27407;24.142;-110.310;2023-12-07T05:57:24;17.80;99.90
41722;DHT22;27407;24.142;-110.310;2023-12-07T05:59:51;17.80;99.90
41722;DHT22;27407;24.142;-110.310;2023-12-07T06:02:17;17.80;99.90
41722;DHT22;27407;24.142;-110.310;2023-12-07T06:04:44;17.80;99.90
41722;DHT22;27407;24.142;-110.310;2023-12-07T06:07:11;17.80;99.90
41722;DHT22;27407;24.142;-110.310;2023-12-07T06:09:38;17.80;99.90
41722;DHT22;27407;24.142;-110.310;2023-12-07T06:12:05;17.80;99.90
41722;DHT22;27407;24.142;-110.310;2023-12-07T06:14:31;17.70;99.90
41722;DHT22;27407;24.142;-110.310;2023-12-07T06:16:58;17.70;99.90
41722;DHT22;27407;24.142;-110.310;2023-12-07T06:19:25;17.70;99.90
41722;DHT22;27407;24.142;-110.310;2023-12-07T06:21:52;17.60;99.90
41722;DHT22;27407;24.142;-110.310;2023-12-07T06:24:18;17.50;99.90
41722;DHT22;27407;24.142;-110.310;2023-12-07T06:26:49;17.40;99.90
41722;DHT22;27407;24.142;-110.310;2023-12-07T06:29:15;17.40;99.90
41722;DHT22;27407;24.142;-110.310;2023-12-07T06:31:45;17.30;99.90
41722;DHT22;27407;24.142;-110.310;2023-12-07T06:34:12;17.20;99.90
41722;DHT22;27407;24.142;-110.310;2023-12-07T06:36:38;17.20;99.90
41722;DHT22;27407;24.142;-110.310;2023-12-07T06:39:05;17.20;99.90
41722;DHT22;27407;24.142;-110.310;2023-12-07T06:41:32;17.20;99.90
41722;DHT22;27407;24.142;-110.310;2023-12-07T06:43:59;17.20;99.90
41722;DHT22;27407;24.142;-110.310;2023-12-07T06:46:26;17.10;99.90
41722;DHT22;27407;24.142;-110.310;2023-12-07T06:48:53;17.10;99.90
41722;DHT22;27407;24.142;-110.310;2023-12-07T06:51:19;17.10;99.90
41722;DHT22;27407;24.142;-110.310;2023-12-07T06:53:46;17.10;99.90
41722;DHT22;27407;24.142;-110.310;2023-12-07T06:56:12;17.10;99.90
41722;DHT22;27407;24.142;-110.310;2023-12-07T06:58:40;17.00;99.90
41722;DHT22;27407;24.142;-110.310;2023-12-07T07:01:06;17.10;99.90
41722;DHT22;27407;24.142;-110.310;2023-12-07T07:03:33;17.00;99.90
41722;DHT22;27407;24.142;-110.310;2023-12-07T07:06:01;16.90;99.90
41722;DHT22;27407;24.142;-110.310;2023-12-07T07:08:28;16.80;99.90
41722;DHT22;27407;24.142;-110.310;2023-12-07T07:10:55;16.80;99.90
41722;DHT22;27407;24.142;-110.310;2023-12-07T07:13:22;16.80;99.90
41722;DHT22;27407;24.142;-110.310;2023-12-07T07:15:48;16.80;99.90
41722;DHT22;27407;24.142;-110.310;2023-12-07T07:18:15;16.80;99.90
41722;DHT22;27407;24.142;-110.310;2023-12-07T07:20:42;16.80;99.90
41722;DHT22;27407;24.142;-110.310;2023-12-07T07:23:08;16.80;99.90
41722;DHT22;27407;24.142;-110.310;2023-12-07T07:25:35;16.80;99.90
41722;DHT22;27407;24.142;-110.310;2023-12-07T07:28:01;16.80;99.90
41722;DHT22;27407;24.142;-110.310;2023-12-07T07:30:29;16.70;99.90
41722;DHT22;27407;24.142;-110.310;2023-12-07T07:32:56;16.70;99.90
41722;DHT22;27407;24.142;-110.310;2023-12-07T07:35:22;16.60;99.90
41722;DHT22;27407;24.142;-110.310;2023-12-07T07:37:49;16.60;99.90
41722;DHT22;27407;24.142;-110.310;2023-12-07T07:40:15;16.60;99.90
41722;DHT22;27407;24.142;-110.310;2023-12-07T07:42:42;16.60;99.90
41722;DHT22;27407;24.142;-110.310;2023-12-07T07:45:10;16.60;99.90
41722;DHT22;27407;24.142;-110.310;2023-12-07T07:47:37;16.50;99.90
41722;DHT22;27407;24.142;-110.310;2023-12-07T07:50:05;16.50;99.90
41722;DHT22;27407;24.142;-110.310;2023-12-07T07:52:35;16.50;99.90
41722;DHT22;27407;24.142;-110.310;2023-12-07T07:55:05;16.50;99.90
41722;DHT22;27407;24.142;-110.310;2023-12-07T07:57:31;16.50;99.90
41722;DHT22;27407;24.142;-110.310;2023-12-07T07:59:58;16.40;99.90
41722;DHT22;27407;24.142;-110.310;2023-12-07T08:02:25;16.40;99.90
41722;DHT22;27407;24.142;-110.310;2023-12-07T08:04:52;16.40;99.90
41722;DHT22;27407;24.142;-110.310;2023-12-07T08:07:18;16.40;99.90
41722;DHT22;27407;24.142;-110.310;2023-12-07T08:09:45;16.30;99.90
41722;DHT22;27407;24.142;-110.310;2023-12-07T08:12:12;16.30;99.90
41722;DHT22;27407;24.142;-110.310;2023-12-07T08:14:38;16.30;99.90
41722;DHT22;27407;24.142;-110.310;2023-12-07T08:17:05;16.20;99.90
41722;DHT22;27407;24.142;-110.310;2023-12-07T08:19:32;16.20;99.90
41722;DHT22;27407;24.142;-110.310;2023-12-07T08:21:59;16.10;99.90
41722;DHT22;27407;24.142;-110.310;2023-12-07T08:24:25;16.20;99.90
41722;DHT22;27407;24.142;-110.310;2023-12-07T08:26:52;16.10;99.90
41722;DHT22;27407;24.142;-110.310;2023-12-07T08:29:18;16.10;99.90
41722;DHT22;27407;24.142;-110.310;2023-12-07T08:31:45;16.10;99.90
41722;DHT22;27407;24.142;-110.310;2023-12-07T08:34:13;16.00;99.90
41722;DHT22;27407;24.142;-110.310;2023-12-07T08:36:40;15.90;99.90
41722;DHT22;27407;24.142;-110.310;2023-12-07T08:39:06;15.90;99.90
41722;DHT22;27407;24.142;-110.310;2023-12-07T08:41:36;15.90;99.90
41722;DHT22;27407;24.142;-110.310;2023-12-07T08:44:04;15.90;99.90
41722;DHT22;27407;24.142;-110.310;2023-12-07T08:46:30;15.90;99.90
41722;DHT22;27407;24.142;-110.310;2023-12-07T08:48:57;15.90;99.90
41722;DHT22;27407;24.142;-110.310;2023-12-07T08:51:24;15.90;99.90
41722;DHT22;27407;24.142;-110.310;2023-12-07T08:53:50;15.90;99.90
41722;DHT22;27407;24.142;-110.310;2023-12-07T08:56:18;15.90;99.90
41722;DHT22;27407;24.142;-110.310;2023-12-07T08:58:45;15.80;99.90
41722;DHT22;27407;24.142;-110.310;2023-12-07T09:01:12;15.80;99.90
41722;DHT22;27407;24.142;-110.310;2023-12-07T09:03:38;15.80;99.90
41722;DHT22;27407;24.142;-110.310;2023-12-07T09:06:07;15.80;99.90
41722;DHT22;27407;24.142;-110.310;2023-12-07T09:08:34;15.70;99.90
41722;DHT22;27407;24.142;-110.310;2023-12-07T09:11:01;15.70;99.90
41722;DHT22;27407;24.142;-110.310;2023-12-07T09:13:27;15.80;99.90
41722;DHT22;27407;24.142;-110.310;2023-12-07T09:15:54;15.80;99.90
41722;DHT22;27407;24.142;-110.310;2023-12-07T09:18:20;15.80;99.90
41722;DHT22;27407;24.142;-110.310;2023-12-07T09:20:47;15.80;99.90
41722;DHT22;27407;24.142;-110.310;2023-12-07T09:23:14;15.90;99.90
41722;DHT22;27407;24.142;-110.310;2023-12-07T09:25:44;15.90;99.90
41722;DHT22;27407;24.142;-110.310;2023-12-07T09:28:10;15.90;99.90
41722;DHT22;27407;24.142;-110.310;2023-12-07T09:30:37;15.90;99.90
41722;DHT22;27407;24.142;-110.310;2023-12-07T09:33:04;15.80;99.90
41722;DHT22;27407;24.142;-110.310;2023-12-07T09:35:31;15.80;99.90
41722;DHT22;27407;24.142;-110.310;2023-12-07T09:38:00;15.80;99.90
41722;DHT22;27407;24.142;-110.310;2023-12-07T09:40:27;15.70;99.90
41722;DHT22;27407;24.142;-110.310;2023-12-07T09:42:54;15.70;99.90
41722;DHT22;27407;24.142;-110.310;2023-12-07T09:45:21;15.60;99.90
41722;DHT22;27407;24.142;-110.310;2023-12-07T09:47:50;15.70;99.90
41722;DHT22;27407;24.142;-110.310;2023-12-07T09:50:18;15.60;99.90
41722;DHT22;27407;24.142;-110.310;2023-12-07T09:52:51;15.60;99.90
41722;DHT22;27407;24.142;-110.310;2023-12-07T09:55:18;15.50;99.90
41722;DHT22;27407;24.142;-110.310;2023-12-07T09:57:48;15.50;99.90
41722;DHT22;27407;24.142;-110.310;2023-12-07T10:00:15;15.40;99.90
41722;DHT22;27407;24.142;-110.310;2023-12-07T10:02:45;15.40;99.90
41722;DHT22;27407;24.142;-110.310;2023-12-07T10:05:13;15.40;99.90
41722;DHT22;27407;24.142;-110.310;2023-12-07T10:07:46;15.40;99.90
41722;DHT22;27407;24.142;-110.310;2023-12-07T10:10:17;15.40;99.90
41722;DHT22;27407;24.142;-110.310;2023-12-07T10:12:55;15.30;99.90
41722;DHT22;27407;24.142;-110.310;2023-12-07T10:15:23;15.40;99.90
41722;DHT22;27407;24.142;-110.310;2023-12-07T10:17:53;15.30;99.90
41722;DHT22;27407;24.142;-110.310;2023-12-07T10:20:22;15.30;99.90
41722;DHT22;27407;24.142;-110.310;2023-12-07T10:23:05;15.30;99.90
41722;DHT22;27407;24.142;-110.310;2023-12-07T10:25:36;15.20;99.90
41722;DHT22;27407;24.142;-110.310;2023-12-07T10:28:03;15.20;99.90
41722;DHT22;27407;24.142;-110.310;2023-12-07T10:30:34;15.20;99.90
41722;DHT22;27407;24.142;-110.310;2023-12-07T10:33:06;15.20;99.90
41722;DHT22;27407;24.142;-110.310;2023-12-07T10:35:39;15.20;99.90
41722;DHT22;27407;24.142;-110.310;2023-12-07T10:38:07;15.20;99.90
41722;DHT22;27407;24.142;-110.310;2023-12-07T10:40:33;15.20;99.90
41722;DHT22;27407;24.142;-110.310;2023-12-07T10:43:07;15.20;99.90
41722;DHT22;27407;24.142;-110.310;2023-12-07T10:45:34;15.20;99.90
41722;DHT22;27407;24.142;-110.310;2023-12-07T10:48:08;15.10;99.90
41722;DHT22;27407;24.142;-110.310;2023-12-07T10:50:38;15.10;99.90
41722;DHT22;27407;24.142;-110.310;2023-12-07T10:53:33;15.10;99.90
41722;DHT22;27407;24.142;-110.310;2023-12-07T10:56:01;15.10;99.90
41722;DHT22;27407;24.142;-110.310;2023-12-07T10:58:28;15.10;99.90
41722;DHT22;27407;24.142;-110.310;2023-12-07T11:00:54;15.10;99.90
41722;DHT22;27407;24.142;-110.310;2023-12-07T11:03:21;15.00;99.90
41722;DHT22;27407;24.142;-110.310;2023-12-07T11:05:48;15.00;99.90
41722;DHT22;27407;24.142;-110.310;2023-12-07T11:08:39;14.90;99.90
41722;DHT22;27407;24.142;-110.310;2023-12-07T11:16:32;14.70;99.90
41722;DHT22;27407;24.142;-110.310;2023-12-07T11:18:59;14.40;99.90
41722;DHT22;27407;24.142;-110.310;2023-12-07T11:21:26;14.30;99.90
41722;DHT22;27407;24.142;-110.310;2023-12-07T11:23:54;14.20;99.90
41722;DHT22;27407;24.142;-110.310;2023-12-07T11:26:23;14.20;99.90
41722;DHT22;27407;24.142;-110.310;2023-12-07T11:28:50;14.20;99.90
41722;DHT22;27407;24.142;-110.310;2023-12-07T11:31:18;14.20;99.90
41722;DHT22;27407;24.142;-110.310;2023-12-07T11:33:46;14.20;99.90
41722;DHT22;27407;24.142;-110.310;2023-12-07T11:36:14;14.20;99.90
41722;DHT22;27407;24.142;-110.310;2023-12-07T11:41:42;14.30;99.90
41722;DHT22;27407;24.142;-110.310;2023-12-07T11:44:10;14.30;99.90
41722;DHT22;27407;24.142;-110.310;2023-12-07T11:46:38;14.20;99.90
41722;DHT22;27407;24.142;-110.310;2023-12-07T11:49:04;14.20;99.90
41722;DHT22;27407;24.142;-110.310;2023-12-07T11:51:36;14.20;99.90
41722;DHT22;27407;24.142;-110.310;2023-12-07T11:54:03;14.10;99.90
41722;DHT22;27407;24.142;-110.310;2023-12-07T11:56:30;14.10;99.90
41722;DHT22;27407;24.142;-110.310;2023-12-07T11:58:57;14.10;99.90
41722;DHT22;27407;24.142;-110.310;2023-12-07T12:01:25;14.10;99.90
41722;DHT22;27407;24.142;-110.310;2023-12-07T12:03:54;14.10;99.90
41722;DHT22;27407;24.142;-110.310;2023-12-07T12:06:20;14.10;99.90
41722;DHT22;27407;24.142;-110.310;2023-12-07T12:08:49;14.10;99.90
41722;DHT22;27407;24.142;-110.310;2023-12-07T12:11:16;14.10;99.90
41722;DHT22;27407;24.142;-110.310;2023-12-07T12:13:43;14.10;99.90
41722;DHT22;27407;24.142;-110.310;2023-12-07T12:16:12;14.10;99.90
41722;DHT22;27407;24.142;-110.310;2023-12-07T12:18:39;14.10;99.90
41722;DHT22;27407;24.142;-110.310;2023-12-07T12:21:07;14.10;99.90
41722;DHT22;27407;24.142;-110.310;2023-12-07T12:23:35;14.10;99.90
41722;DHT22;27407;24.142;-110.310;2023-12-07T12:26:03;14.20;99.90
41722;DHT22;27407;24.142;-110.310;2023-12-07T12:28:30;14.10;99.90
41722;DHT22;27407;24.142;-110.310;2023-12-07T12:30:58;14.20;99.90
41722;DHT22;27407;24.142;-110.310;2023-12-07T12:33:25;14.20;99.90
41722;DHT22;27407;24.142;-110.310;2023-12-07T12:36:04;14.30;99.90
41722;DHT22;27407;24.142;-110.310;2023-12-07T12:38:33;14.30;99.90
41722;DHT22;27407;24.142;-110.310;2023-12-07T12:41:00;14.40;99.90
41722;DHT22;27407;24.142;-110.310;2023-12-07T12:43:26;14.40;99.90
41722;DHT22;27407;24.142;-110.310;2023-12-07T12:45:53;14.40;99.90
41722;DHT22;27407;24.142;-110.310;2023-12-07T12:48:20;14.30;99.90
41722;DHT22;27407;24.142;-110.310;2023-12-07T12:50:47;14.30;99.90
41722;DHT22;27407;24.142;-110.310;2023-12-07T12:53:14;14.30;99.90
41722;DHT22;27407;24.142;-110.310;2023-12-07T12:55:42;14.30;99.90
41722;DHT22;27407;24.142;-110.310;2023-12-07T12:58:10;14.30;99.90
41722;DHT22;27407;24.142;-110.310;2023-12-07T13:00:40;14.30;99.90
41722;DHT22;27407;24.142;-110.310;2023-12-07T13:03:11;14.30;99.90
41722;DHT22;27407;24.142;-110.310;2023-12-07T13:05:39;14.30;99.90
41722;DHT22;27407;24.142;-110.310;2023-12-07T13:08:06;14.20;99.90
41722;DHT22;27407;24.142;-110.310;2023-12-07T13:10:34;14.10;99.90
41722;DHT22;27407;24.142;-110.310;2023-12-07T13:13:00;14.00;99.90
41722;DHT22;27407;24.142;-110.310;2023-12-07T13:15:28;13.90;99.90
41722;DHT22;27407;24.142;-110.310;2023-12-07T13:17:55;13.80;99.90
41722;DHT22;27407;24.142;-110.310;2023-12-07T13:20:22;13.80;99.90
41722;DHT22;27407;24.142;-110.310;2023-12-07T13:22:49;13.70;99.90
41722;DHT22;27407;24.142;-110.310;2023-12-07T13:25:16;13.70;99.90
41722;DHT22;27407;24.142;-110.310;2023-12-07T13:27:42;13.70;99.90
41722;DHT22;27407;24.142;-110.310;2023-12-07T13:30:12;13.70;99.90
41722;DHT22;27407;24.142;-110.310;2023-12-07T13:32:39;13.70;99.90
41722;DHT22;27407;24.142;-110.310;2023-12-07T13:35:06;13.70;99.90
41722;DHT22;27407;24.142;-110.310;2023-12-07T13:37:34;13.70;99.90
41722;DHT22;27407;24.142;-110.310;2023-12-07T13:40:01;13.70;99.90
41722;DHT22;27407;24.142;-110.310;2023-12-07T13:42:30;13.70;99.90
41722;DHT22;27407;24.142;-110.310;2023-12-07T13:44:58;13.70;99.90
41722;DHT22;27407;24.142;-110.310;2023-12-07T13:47:27;13.70;99.90
41722;DHT22;27407;24.142;-110.310;2023-12-07T13:50:03;13.70;99.90
41722;DHT22;27407;24.142;-110.310;2023-12-07T13:52:31;13.70;99.90
41722;DHT22;27407;24.142;-110.310;2023-12-07T13:54:58;13.70;99.90
41722;DHT22;27407;24.142;-110.310;2023-12-07T13:57:25;13.70;99.90
41722;DHT22;27407;24.142;-110.310;2023-12-07T13:59:53;13.70;99.90
41722;DHT22;27407;24.142;-110.310;2023-12-07T14:02:20;13.70;99.90
41722;DHT22;27407;24.142;-110.310;2023-12-07T14:04:47;13.70;99.90
41722;DHT22;27407;24.142;-110.310;2023-12-07T14:07:19;13.80;99.90
41722;DHT22;27407;24.142;-110.310;2023-12-07T14:09:48;13.80;99.90
41722;DHT22;27407;24.142;-110.310;2023-12-07T14:12:24;13.80;99.90
41722;DHT22;27407;24.142;-110.310;2023-12-07T14:14:54;13.80;99.90
41722;DHT22;27407;24.142;-110.310;2023-12-07T14:17:24;13.80;99.90
41722;DHT22;27407;24.142;-110.310;2023-12-07T14:19:51;13.80;99.90
41722;DHT22;27407;24.142;-110.310;2023-12-07T14:22:20;13.80;99.90
41722;DHT22;27407;24.142;-110.310;2023-12-07T14:24:47;13.90;99.90
41722;DHT22;27407;24.142;-110.310;2023-12-07T14:27:14;13.90;99.90
41722;DHT22;27407;24.142;-110.310;2023-12-07T14:29:41;14.00;99.90
41722;DHT22;27407;24.142;-110.310;2023-12-07T14:32:08;14.00;99.90
41722;DHT22;27407;24.142;-110.310;2023-12-07T14:34:35;14.10;99.90
41722;DHT22;27407;24.142;-110.310;2023-12-07T14:37:03;14.20;99.90
41722;DHT22;27407;24.142;-110.310;2023-12-07T14:39:35;14.30;99.90
41722;DHT22;27407;24.142;-110.310;2023-12-07T14:42:02;14.40;99.90
41722;DHT22;27407;24.142;-110.310;2023-12-07T14:44:30;14.50;99.90
41722;DHT22;27407;24.142;-110.310;2023-12-07T14:46:57;14.60;99.90
41722;DHT22;27407;24.142;-110.310;2023-12-07T14:49:25;14.70;99.90
41722;DHT22;27407;24.142;-110.310;2023-12-07T14:51:54;14.80;99.90
41722;DHT22;27407;24.142;-110.310;2023-12-07T14:54:25;14.90;99.90
41722;DHT22;27407;24.142;-110.310;2023-12-07T14:56:53;15.00;99.90
41722;DHT22;27407;24.142;-110.310;2023-12-07T14:59:20;15.20;99.90
41722;DHT22;27407;24.142;-110.310;2023-12-07T15:01:47;15.30;99.90